createdAt,value
2023-01-17T00:00:00.453Z,79.9
2023-01-17T00:01:00.603Z,79.9
2023-01-17T00:02:00.751Z,79.9
2023-01-17T00:03:00.975Z,79.9
2023-01-17T00:04:01.141Z,80
2023-01-17T00:05:01.198Z,80
2023-01-17T00:06:00.342Z,80
2023-01-17T00:07:00.488Z,80
2023-01-17T00:08:00.668Z,79.9
2023-01-17T00:09:00.802Z,79.9
2023-01-17T00:10:00.937Z,79.9
2023-01-17T00:11:01.101Z,80
2023-01-17T00:12:01.244Z,80.2
2023-01-17T00:13:00.388Z,80
2023-01-17T00:14:00.556Z,80.1
2023-01-17T00:15:00.768Z,80.1
2023-01-17T00:16:00.861Z,80.1
2023-01-17T00:17:01.010Z,80.2
2023-01-17T00:18:01.148Z,80.2
2023-01-17T00:19:00.295Z,80.2
2023-01-17T00:20:00.449Z,80.3
2023-01-17T00:21:00.593Z,80.4
2023-01-17T00:22:00.739Z,80.6
2023-01-17T00:23:00.892Z,80.6
2023-01-17T00:24:01.043Z,80.5
2023-01-17T00:25:01.214Z,80.5
2023-01-17T00:26:00.329Z,80.4
2023-01-17T00:27:00.483Z,80.4
2023-01-17T00:28:00.627Z,80.5
2023-01-17T00:29:00.774Z,80.5
2023-01-17T00:30:00.923Z,80.7
2023-01-17T00:31:01.156Z,80.5
2023-01-17T00:32:01.202Z,80.7
2023-01-17T00:33:00.357Z,80.8
2023-01-17T00:34:00.516Z,81
2023-01-17T00:35:00.648Z,81
2023-01-17T00:36:00.835Z,80.9
2023-01-17T00:37:00.944Z,80.8
2023-01-17T00:38:16.686Z,80.9
2023-01-17T00:39:01.238Z,80.9
2023-01-17T00:40:00.381Z,81
2023-01-17T00:41:00.535Z,80.9
2023-01-17T00:42:00.667Z,81
2023-01-17T00:43:00.817Z,81
2023-01-17T00:44:00.998Z,81
2023-01-17T00:45:01.114Z,81.1
2023-01-17T00:46:00.294Z,81
2023-01-17T00:47:00.430Z,81
2023-01-17T00:48:00.569Z,81
2023-01-17T00:49:00.732Z,81.1
2023-01-17T00:50:00.839Z,81.2
2023-01-17T00:51:00.999Z,81.2
2023-01-17T00:52:01.133Z,81.2
2023-01-17T00:53:00.315Z,81.2
2023-01-17T00:54:00.449Z,81.4
2023-01-17T00:55:00.684Z,81.3
2023-01-17T00:56:00.731Z,81.3
2023-01-17T00:57:00.902Z,81.4
2023-01-17T00:58:01.041Z,81.3
2023-01-17T00:59:01.179Z,81.5
2023-01-17T01:00:00.335Z,81.4
2023-01-17T01:01:00.616Z,81.4
2023-01-17T01:02:00.860Z,81.3
2023-01-17T01:03:00.787Z,81.2
2023-01-17T01:04:00.921Z,81.4
2023-01-17T01:05:01.062Z,81.4
2023-01-17T01:06:01.211Z,81.5
2023-01-17T01:07:00.399Z,81.6
2023-01-17T01:08:00.497Z,81.6
2023-01-17T01:09:00.655Z,81.6
2023-01-17T01:10:00.794Z,81.7
2023-01-17T01:11:00.948Z,81.6
2023-01-17T01:12:01.120Z,81.5
2023-01-17T01:13:01.232Z,81.6
2023-01-17T01:14:00.389Z,81.3
2023-01-17T01:15:00.562Z,81.3
2023-01-17T01:16:00.812Z,81.4
2023-01-17T01:17:00.867Z,81.3
2023-01-17T01:18:00.981Z,81.2
2023-01-17T01:19:01.134Z,81.1
2023-01-17T01:20:00.265Z,81.3
2023-01-17T01:21:00.419Z,81.6
2023-01-17T01:22:00.578Z,81.5
2023-01-17T01:23:00.712Z,81.5
2023-01-17T01:24:00.863Z,81.5
2023-01-17T01:25:01.013Z,81.5
2023-01-17T01:26:01.158Z,81.4
2023-01-17T01:27:00.321Z,81.3
2023-01-17T01:28:00.474Z,81.4
2023-01-17T01:29:00.633Z,81.4
2023-01-17T01:30:00.762Z,81.2
2023-01-17T01:31:00.903Z,81.2
2023-01-17T01:32:01.043Z,81.1
2023-01-17T01:33:01.198Z,81
2023-01-17T01:34:00.375Z,81.1
2023-01-17T01:35:00.501Z,81.2
2023-01-17T01:36:00.644Z,81.2
2023-01-17T01:37:00.804Z,80.9
2023-01-17T01:38:00.952Z,81
2023-01-17T01:39:01.121Z,81.1
2023-01-17T01:40:01.247Z,81.2
2023-01-17T01:41:00.395Z,81.1
2023-01-17T01:42:00.539Z,81.1
2023-01-17T01:43:00.731Z,81.3
2023-01-17T01:44:00.850Z,81.2
2023-01-17T01:45:01.005Z,81.4
2023-01-17T01:46:01.229Z,81.2
2023-01-17T01:47:00.293Z,81.2
2023-01-17T01:48:00.439Z,81
2023-01-17T01:49:00.591Z,80.9
2023-01-17T01:50:00.767Z,80.9
2023-01-17T01:51:00.890Z,81
2023-01-17T01:52:01.048Z,80.8
2023-01-17T01:53:01.210Z,80.9
2023-01-17T01:54:00.336Z,81.1
2023-01-17T01:55:00.532Z,80.9
2023-01-17T01:56:00.641Z,81.1
2023-01-17T01:57:00.788Z,81.1
2023-01-17T01:58:00.952Z,80.7
2023-01-17T01:59:01.089Z,80.5
2023-01-17T02:00:01.269Z,80.6
2023-01-17T02:01:00.432Z,80.6
2023-01-17T02:02:00.523Z,80.9
2023-01-17T02:03:00.679Z,80.9
2023-01-17T02:04:00.878Z,80.8
2023-01-17T02:05:03.678Z,80.7
2023-01-17T02:06:01.124Z,80.8
2023-01-17T02:07:00.280Z,80.9
2023-01-17T02:08:00.412Z,80.8
2023-01-17T02:09:00.564Z,80.6
2023-01-17T02:10:00.722Z,80.6
2023-01-17T02:11:00.883Z,80.6
2023-01-17T02:12:01.025Z,80.8
2023-01-17T02:13:01.166Z,80.7
2023-01-17T02:14:00.319Z,80.7
2023-01-17T02:15:00.457Z,80.9
2023-01-17T02:16:00.730Z,80.9
2023-01-17T02:17:00.737Z,80.7
2023-01-17T02:18:00.885Z,80.8
2023-01-17T02:19:01.061Z,80.8
2023-01-17T02:20:01.198Z,80.9
2023-01-17T02:21:00.362Z,80.9
2023-01-17T02:22:00.486Z,80.7
2023-01-17T02:23:00.625Z,80.5
2023-01-17T02:24:00.782Z,80.7
2023-01-17T02:25:00.941Z,80.7
2023-01-17T02:26:01.109Z,80.7
2023-01-17T02:27:01.233Z,80.9
2023-01-17T02:28:00.364Z,80.9
2023-01-17T02:29:00.512Z,81
2023-01-17T02:30:00.662Z,81.1
2023-01-17T02:31:00.819Z,81
2023-01-17T02:32:00.961Z,81.1
2023-01-17T02:33:01.103Z,81
2023-01-17T02:34:01.256Z,80.8
2023-01-17T02:35:00.409Z,80.7
2023-01-17T02:36:00.577Z,80.9
2023-01-17T02:37:00.710Z,80.8
2023-01-17T02:38:00.864Z,80.8
2023-01-17T02:39:00.997Z,80.9
2023-01-17T02:40:01.150Z,80.9
2023-01-17T02:41:00.314Z,80.8
2023-01-17T02:42:00.443Z,81
2023-01-17T02:43:00.609Z,80.9
2023-01-17T02:44:00.740Z,80.8
2023-01-17T02:45:00.888Z,80.7
2023-01-17T02:46:01.099Z,80.8
2023-01-17T02:47:01.177Z,80.8
2023-01-17T02:48:00.332Z,80.6
2023-01-17T02:49:00.482Z,80.7
2023-01-17T02:50:00.628Z,80.7
2023-01-17T02:51:03.427Z,80.7
2023-01-17T02:52:00.931Z,80.6
2023-01-17T02:53:01.082Z,80.8
2023-01-17T02:54:01.232Z,81
2023-01-17T02:55:00.375Z,81
2023-01-17T02:56:00.539Z,81
2023-01-17T02:57:00.706Z,80.8
2023-01-17T02:58:00.841Z,80.6
2023-01-17T02:59:00.992Z,80.4
2023-01-17T03:00:01.182Z,80.7
2023-01-17T03:01:00.364Z,80.7
2023-01-17T03:02:00.698Z,80.6
2023-01-17T03:03:00.567Z,80.7
2023-01-17T03:04:00.720Z,80.6
2023-01-17T03:05:00.868Z,80.3
2023-01-17T03:06:01.029Z,80.2
2023-01-17T03:07:01.182Z,80.1
2023-01-17T03:08:00.305Z,80
2023-01-17T03:09:00.473Z,80.1
2023-01-17T03:10:00.627Z,80.1
2023-01-17T03:11:00.751Z,80.2
2023-01-17T03:12:00.914Z,80.1
2023-01-17T03:13:01.057Z,79.9
2023-01-17T03:14:01.225Z,79.8
2023-01-17T03:15:00.348Z,79.7
2023-01-17T03:16:00.504Z,79.7
2023-01-17T03:17:00.639Z,79.8
2023-01-17T03:18:00.803Z,79.7
2023-01-17T03:19:00.951Z,79.7
2023-01-17T03:20:01.120Z,79.6
2023-01-17T03:21:01.251Z,79.7
2023-01-17T03:22:00.381Z,79.8
2023-01-17T03:23:00.536Z,79.7
2023-01-17T03:24:00.671Z,79.8
2023-01-17T03:25:00.836Z,79.8
2023-01-17T03:26:00.972Z,79.7
2023-01-17T03:27:01.109Z,79.7
2023-01-17T03:28:01.255Z,79.6
2023-01-17T03:29:00.410Z,79.5
2023-01-17T03:30:00.539Z,79.4
2023-01-17T03:31:00.808Z,79.3
2023-01-17T03:32:00.875Z,79.4
2023-01-17T03:33:00.998Z,79.3
2023-01-17T03:34:01.170Z,79.2
2023-01-17T03:35:00.303Z,79.1
2023-01-17T03:36:00.442Z,79.2
2023-01-17T03:37:00.615Z,79.3
2023-01-17T03:38:00.737Z,79.2
2023-01-17T03:39:00.881Z,79.2
2023-01-17T03:40:01.046Z,78.9
2023-01-17T03:41:01.188Z,78.9
2023-01-17T03:42:00.343Z,79
2023-01-17T03:43:00.493Z,78.9
2023-01-17T03:44:00.646Z,78.9
2023-01-17T03:45:00.772Z,78.9
2023-01-17T03:46:01.003Z,78.8
2023-01-17T03:47:01.076Z,78.8
2023-01-17T03:48:01.215Z,78.8
2023-01-17T03:49:00.384Z,78.8
2023-01-17T03:50:00.542Z,78.7
2023-01-17T03:51:00.663Z,78.7
2023-01-17T03:52:00.804Z,78.7
2023-01-17T03:53:00.949Z,78.8
2023-01-17T03:54:01.097Z,78.9
2023-01-17T03:55:01.283Z,78.8
2023-01-17T03:56:00.414Z,78.8
2023-01-17T03:57:00.568Z,78.8
2023-01-17T03:58:00.699Z,78.7
2023-01-17T03:59:00.884Z,78.9
2023-01-17T04:00:01.026Z,78.9
2023-01-17T04:01:01.287Z,79
2023-01-17T04:02:00.394Z,79.2
2023-01-17T04:03:00.445Z,79.2
2023-01-17T04:04:00.610Z,79.3
2023-01-17T04:05:00.766Z,79.3
2023-01-17T04:06:00.917Z,79.3
2023-01-17T04:07:01.039Z,79.3
2023-01-17T04:08:01.180Z,79.3
2023-01-17T04:09:00.348Z,79.5
2023-01-17T04:10:00.501Z,79.3
2023-01-17T04:11:00.636Z,79.4
2023-01-17T04:12:00.774Z,79.4
2023-01-17T04:13:00.916Z,79.2
2023-01-17T04:14:01.065Z,79.1
2023-01-17T04:15:01.225Z,79.2
2023-01-17T04:16:00.382Z,79
2023-01-17T04:17:00.520Z,79.1
2023-01-17T04:18:00.655Z,79
2023-01-17T04:19:00.829Z,79
2023-01-17T04:20:00.962Z,78.8
2023-01-17T04:21:01.111Z,78.8
2023-01-17T04:22:01.253Z,78.8
2023-01-17T04:23:00.394Z,78.8
2023-01-17T04:24:00.541Z,78.8
2023-01-17T04:25:00.685Z,79.1
2023-01-17T04:26:00.852Z,79
2023-01-17T04:27:01.001Z,78.8
2023-01-17T04:28:01.139Z,78.8
2023-01-17T04:29:00.285Z,78.9
2023-01-17T04:30:00.432Z,78.7
2023-01-17T04:31:00.676Z,78.7
2023-01-17T04:32:00.721Z,78.7
2023-01-17T04:33:00.870Z,78.6
2023-01-17T04:34:01.005Z,78.7
2023-01-17T04:35:01.144Z,78.8
2023-01-17T04:36:00.309Z,78.6
2023-01-17T04:37:00.457Z,78.6
2023-01-17T04:38:00.606Z,78.6
2023-01-17T04:39:00.742Z,78.4
2023-01-17T04:40:00.882Z,78.4
2023-01-17T04:41:01.033Z,78.5
2023-01-17T04:42:01.169Z,78.4
2023-01-17T04:43:00.331Z,78.5
2023-01-17T04:44:00.502Z,78.5
2023-01-17T04:45:00.614Z,78.5
2023-01-17T04:46:00.832Z,78.4
2023-01-17T04:47:00.923Z,78.6
2023-01-17T04:48:01.065Z,78.6
2023-01-17T04:49:01.253Z,78.7
2023-01-17T04:50:00.373Z,78.5
2023-01-17T04:51:00.535Z,78.5
2023-01-17T04:52:00.660Z,78.5
2023-01-17T04:53:00.817Z,78.5
2023-01-17T04:54:00.986Z,78.7
2023-01-17T04:55:01.125Z,78.6
2023-01-17T04:56:01.252Z,78.5
2023-01-17T04:57:00.408Z,78.6
2023-01-17T04:58:00.553Z,78.5
2023-01-17T04:59:00.720Z,78.9
2023-01-17T05:00:00.874Z,79.1
2023-01-17T05:01:01.035Z,79.3
2023-01-17T05:02:01.267Z,79.3
2023-01-17T05:03:00.329Z,79.2
2023-01-17T05:04:00.473Z,79.3
2023-01-17T05:05:00.625Z,79
2023-01-17T05:06:00.785Z,79.1
2023-01-17T05:07:00.907Z,79.1
2023-01-17T05:08:01.045Z,79.2
2023-01-17T05:09:01.206Z,79.4
2023-01-17T05:10:00.423Z,79.3
2023-01-17T05:11:00.520Z,79.5
2023-01-17T05:12:00.643Z,79.5
2023-01-17T05:13:00.785Z,79.5
2023-01-17T05:14:00.940Z,79.7
2023-01-17T05:15:01.099Z,79.6
2023-01-17T05:16:01.323Z,79.3
2023-01-17T05:17:00.405Z,79.5
2023-01-17T05:18:00.527Z,79.7
2023-01-17T05:19:00.673Z,80
2023-01-17T05:20:00.844Z,80.1
2023-01-17T05:21:01.006Z,80
2023-01-17T05:22:01.128Z,80
2023-01-17T05:23:00.277Z,80.4
2023-01-17T05:24:00.421Z,80.2
2023-01-17T05:25:00.567Z,80.1
2023-01-17T05:26:00.753Z,80.4
2023-01-17T05:27:00.880Z,80.5
2023-01-17T05:28:01.017Z,80.4
2023-01-17T05:29:01.162Z,80.5
2023-01-17T05:30:00.299Z,80.5
2023-01-17T05:31:00.503Z,80.6
2023-01-17T05:32:00.663Z,80.7
2023-01-17T05:33:00.781Z,80.6
2023-01-17T05:34:00.911Z,80.7
2023-01-17T05:35:01.069Z,80.7
2023-01-17T05:36:01.264Z,80.7
2023-01-17T05:37:00.383Z,80.8
2023-01-17T05:38:00.505Z,80.8
2023-01-17T05:39:00.672Z,80.8
2023-01-17T05:40:00.793Z,81
2023-01-17T05:41:00.992Z,80.8
2023-01-17T05:42:01.092Z,81
2023-01-17T05:43:01.250Z,81
2023-01-17T05:44:00.403Z,81
2023-01-17T05:45:00.553Z,81
2023-01-17T05:46:00.806Z,81.2
2023-01-17T05:47:00.838Z,81.3
2023-01-17T05:48:00.978Z,81.4
2023-01-17T05:49:01.125Z,81.5
2023-01-17T05:50:00.275Z,81.6
2023-01-17T05:51:00.452Z,81.6
2023-01-17T05:52:00.602Z,81.6
2023-01-17T05:53:00.728Z,81.7
2023-01-17T05:54:00.869Z,81.7
2023-01-17T05:55:01.025Z,81.8
2023-01-17T05:56:01.206Z,81.9
2023-01-17T05:57:00.326Z,82
2023-01-17T05:58:00.487Z,82.1
2023-01-17T05:59:00.636Z,82.3
2023-01-17T06:00:00.763Z,82.3
2023-01-17T06:01:00.976Z,82.3
2023-01-17T06:02:01.070Z,82.4
2023-01-17T06:03:01.206Z,82.4
2023-01-17T06:04:00.358Z,82.4
2023-01-17T06:05:03.287Z,82.4
2023-01-17T06:06:00.657Z,82.5
2023-01-17T06:07:00.784Z,82.6
2023-01-17T06:08:00.914Z,82.6
2023-01-17T06:09:01.078Z,82.7
2023-01-17T06:10:01.246Z,82.8
2023-01-17T06:11:00.388Z,82.9
2023-01-17T06:12:00.516Z,82.9
2023-01-17T06:13:00.664Z,82.9
2023-01-17T06:14:00.796Z,83
2023-01-17T06:15:00.944Z,83
2023-01-17T06:16:01.119Z,82.9
2023-01-17T06:17:01.247Z,82.8
2023-01-17T06:18:00.390Z,82.8
2023-01-17T06:19:00.532Z,82.8
2023-01-17T06:20:00.698Z,82.8
2023-01-17T06:21:00.859Z,82.8
2023-01-17T06:22:00.983Z,82.8
2023-01-17T06:23:01.130Z,82.8
2023-01-17T06:24:01.557Z,82.8
2023-01-17T06:25:00.435Z,82.8
2023-01-17T06:26:00.600Z,82.7
2023-01-17T06:27:00.712Z,82.7
2023-01-17T06:28:00.883Z,82.7
2023-01-17T06:29:01.017Z,82.7
2023-01-17T06:30:01.165Z,82.7
2023-01-17T06:31:00.386Z,82.8
2023-01-17T06:32:01.729Z,82.6
2023-01-17T06:33:00.608Z,82.6
2023-01-17T06:34:00.775Z,82.6
2023-01-17T06:35:00.911Z,82.8
2023-01-17T06:36:01.040Z,82.7
2023-01-17T06:37:01.199Z,82.6
2023-01-17T06:38:00.478Z,82.4
2023-01-17T06:39:00.525Z,82.3
2023-01-17T06:40:00.653Z,82.1
2023-01-17T06:41:00.798Z,82.1
2023-01-17T06:42:00.932Z,81.8
2023-01-17T06:43:01.123Z,81.7
2023-01-17T06:44:01.267Z,81.8
2023-01-17T06:45:00.409Z,81.4
2023-01-17T06:46:00.585Z,81.1
2023-01-17T06:47:00.695Z,81.1
2023-01-17T06:48:00.858Z,81.4
2023-01-17T06:49:00.987Z,81.3
2023-01-17T06:50:01.143Z,81.1
2023-01-17T06:51:00.300Z,80.9
2023-01-17T06:52:00.454Z,81
2023-01-17T06:53:00.621Z,80.5
2023-01-17T06:54:00.745Z,80.1
2023-01-17T06:55:00.877Z,80.2
2023-01-17T06:56:01.067Z,80.3
2023-01-17T06:57:01.187Z,80.1
2023-01-17T06:58:00.340Z,80.3
2023-01-17T06:59:00.483Z,80.2
2023-01-17T07:00:00.652Z,79.9
2023-01-17T07:01:00.824Z,79.8
2023-01-17T07:02:00.918Z,79.5
2023-01-17T07:03:01.072Z,79.6
2023-01-17T07:04:01.281Z,79.7
2023-01-17T07:05:00.351Z,79.1
2023-01-17T07:06:00.494Z,79.4
2023-01-17T07:07:00.629Z,79.3
2023-01-17T07:08:00.809Z,79.4
2023-01-17T07:09:00.953Z,79.3
2023-01-17T07:10:01.119Z,79.2
2023-01-17T07:11:01.219Z,79.2
2023-01-17T07:12:00.367Z,79.2
2023-01-17T07:13:00.534Z,79
2023-01-17T07:14:00.678Z,79
2023-01-17T07:15:00.806Z,78.9
2023-01-17T07:16:00.969Z,78.8
2023-01-17T07:17:01.105Z,79
2023-01-17T07:18:01.248Z,78.9
2023-01-17T07:19:00.394Z,78.8
2023-01-17T07:20:00.547Z,78.8
2023-01-17T07:21:00.671Z,79
2023-01-17T07:22:00.843Z,79
2023-01-17T07:23:00.963Z,78.6
2023-01-17T07:24:01.113Z,78.1
2023-01-17T07:25:01.265Z,77.9
2023-01-17T07:26:00.416Z,78
2023-01-17T07:27:00.570Z,78.2
2023-01-17T07:28:00.732Z,78.2
2023-01-17T07:29:00.846Z,78.3
2023-01-17T07:30:01.066Z,78.1
2023-01-17T07:31:01.191Z,77.9
2023-01-17T07:32:00.294Z,78.1
2023-01-17T07:33:00.468Z,78
2023-01-17T07:34:00.584Z,78
2023-01-17T07:35:00.756Z,77.9
2023-01-17T07:36:00.908Z,78
2023-01-17T07:37:01.037Z,78
2023-01-17T07:38:01.206Z,77.9
2023-01-17T07:39:00.327Z,77.7
2023-01-17T07:40:00.462Z,78.2
2023-01-17T07:41:00.621Z,78
2023-01-17T07:42:00.740Z,77.9
2023-01-17T07:43:00.902Z,77.8
2023-01-17T07:44:01.040Z,77.8
2023-01-17T07:45:01.192Z,77.8
2023-01-17T07:46:02.124Z,78.2
2023-01-17T07:47:00.482Z,78.1
2023-01-17T07:48:00.645Z,77.8
2023-01-17T07:49:00.785Z,77.3
2023-01-17T07:50:00.931Z,77.4
2023-01-17T07:51:01.090Z,77.4
2023-01-17T07:52:01.227Z,77.5
2023-01-17T07:53:00.374Z,77.5
2023-01-17T07:54:00.529Z,77.6
2023-01-17T07:55:00.691Z,77.3
2023-01-17T07:56:00.816Z,77.5
2023-01-17T07:57:00.963Z,77.5
2023-01-17T07:58:02.998Z,77.3
2023-01-17T07:59:00.281Z,77.6
2023-01-17T08:00:00.436Z,77.5
2023-01-17T08:01:00.712Z,77.1
2023-01-17T08:02:00.849Z,77.3
2023-01-17T08:03:00.856Z,77.1
2023-01-17T08:04:01.106Z,76.9
2023-01-17T08:05:01.168Z,77.2
2023-01-17T08:06:00.312Z,77.1
2023-01-17T08:07:00.456Z,76.7
2023-01-17T08:08:00.628Z,76.9
2023-01-17T08:09:00.772Z,76.9
2023-01-17T08:10:00.942Z,77.2
2023-01-17T08:11:01.081Z,76.7
2023-01-17T08:12:01.233Z,76.4
2023-01-17T08:13:00.360Z,76.5
2023-01-17T08:14:00.526Z,76.8
2023-01-17T08:15:00.681Z,76.7
2023-01-17T08:16:00.857Z,76.8
2023-01-17T08:17:00.961Z,76.6
2023-01-17T08:18:01.127Z,77.1
2023-01-17T08:19:01.245Z,76.9
2023-01-17T08:20:00.421Z,77.1
2023-01-17T08:21:00.551Z,77
2023-01-17T08:22:00.693Z,76.9
2023-01-17T08:23:00.841Z,77
2023-01-17T08:24:00.991Z,76.4
2023-01-17T08:25:01.150Z,76.7
2023-01-17T08:26:00.308Z,77.1
2023-01-17T08:27:00.443Z,77.3
2023-01-17T08:28:00.596Z,77.2
2023-01-17T08:29:00.794Z,77.3
2023-01-17T08:30:00.887Z,77.1
2023-01-17T08:31:01.051Z,77.4
2023-01-17T08:32:01.181Z,77.4
2023-01-17T08:33:00.362Z,77.6
2023-01-17T08:34:00.470Z,77.5
2023-01-17T08:35:00.669Z,77.2
2023-01-17T08:36:00.757Z,77.1
2023-01-17T08:37:00.911Z,77
2023-01-17T08:38:01.065Z,76.9
2023-01-17T08:39:01.194Z,77
2023-01-17T08:40:00.364Z,76.6
2023-01-17T08:41:00.540Z,76.9
2023-01-17T08:42:00.643Z,77
2023-01-17T08:43:00.770Z,76.4
2023-01-17T08:44:00.918Z,76.1
2023-01-17T08:45:01.113Z,76.8
2023-01-17T08:46:01.278Z,76.3
2023-01-17T08:47:00.401Z,76.1
2023-01-17T08:48:00.534Z,76.5
2023-01-17T08:49:00.673Z,76.5
2023-01-17T08:50:00.838Z,76.4
2023-01-17T08:51:01.004Z,76.4
2023-01-17T08:52:01.109Z,75.6
2023-01-17T08:53:01.543Z,75.3
2023-01-17T08:54:00.408Z,75.8
2023-01-17T08:55:00.615Z,75.7
2023-01-17T08:56:00.700Z,75.2
2023-01-17T08:57:00.877Z,75.1
2023-01-17T08:58:01.014Z,75.2
2023-01-17T08:59:01.154Z,75.4
2023-01-17T09:00:00.334Z,75.4
2023-01-17T09:01:00.561Z,75.3
2023-01-17T09:02:00.763Z,75.4
2023-01-17T09:03:00.734Z,74.7
2023-01-17T09:04:00.934Z,74.7
2023-01-17T09:05:01.069Z,74.4
2023-01-17T09:06:01.185Z,74.4
2023-01-17T09:07:00.332Z,74.6
2023-01-17T09:08:00.498Z,75
2023-01-17T09:09:00.627Z,74.6
2023-01-17T09:10:00.787Z,74.6
2023-01-17T09:11:00.930Z,74
2023-01-17T09:12:01.068Z,73.6
2023-01-17T09:13:01.213Z,74.1
2023-01-17T09:14:00.368Z,73.2
2023-01-17T09:15:00.498Z,73.4
2023-01-17T09:16:00.660Z,74
2023-01-17T09:17:00.815Z,73.6
2023-01-17T09:18:00.934Z,73.7
2023-01-17T09:19:01.109Z,73.1
2023-01-17T09:20:01.238Z,73
2023-01-17T09:21:00.407Z,73.3
2023-01-17T09:22:00.545Z,73.6
2023-01-17T09:23:00.685Z,73.2
2023-01-17T09:24:00.829Z,73.1
2023-01-17T09:25:00.975Z,72.7
2023-01-17T09:26:01.146Z,73.3
2023-01-17T09:27:00.286Z,72.6
2023-01-17T09:28:00.419Z,72.8
2023-01-17T09:29:00.566Z,72.4
2023-01-17T09:30:00.726Z,72.5
2023-01-17T09:31:00.908Z,72.8
2023-01-17T09:32:01.010Z,73
2023-01-17T09:33:01.154Z,72.9
2023-01-17T09:34:00.308Z,73
2023-01-17T09:35:00.473Z,72.6
2023-01-17T09:36:00.642Z,72.2
2023-01-17T09:37:00.753Z,72
2023-01-17T09:38:00.896Z,72.3
2023-01-17T09:39:01.070Z,71.5
2023-01-17T09:40:01.205Z,71.5
2023-01-17T09:41:00.357Z,72.2
2023-01-17T09:42:00.494Z,72.1
2023-01-17T09:43:00.641Z,72
2023-01-17T09:44:00.790Z,71.6
2023-01-17T09:45:00.943Z,71.2
2023-01-17T09:46:01.242Z,71.6
2023-01-17T09:47:01.275Z,71.1
2023-01-17T09:48:00.371Z,71.3
2023-01-17T09:49:00.522Z,71.5
2023-01-17T09:50:00.672Z,71.8
2023-01-17T09:51:00.855Z,71.3
2023-01-17T09:52:00.979Z,71.4
2023-01-17T09:53:01.128Z,70.3
2023-01-17T09:54:00.281Z,70
2023-01-17T09:55:00.439Z,70.3
2023-01-17T09:56:00.614Z,70.9
2023-01-17T09:57:00.752Z,70.6
2023-01-17T09:58:00.880Z,70.1
2023-01-17T09:59:01.016Z,70.6
2023-01-17T10:00:03.608Z,70
2023-01-17T10:01:00.441Z,70.4
2023-01-17T10:02:00.694Z,69.9
2023-01-17T10:03:00.682Z,69.9
2023-01-17T10:04:00.785Z,70.2
2023-01-17T10:05:00.960Z,69.9
2023-01-17T10:06:01.071Z,68.7
2023-01-17T10:07:01.194Z,69.1
2023-01-17T10:08:01.514Z,69.3
2023-01-17T10:09:00.489Z,68.6
2023-01-17T10:10:00.642Z,68.7
2023-01-17T10:11:00.821Z,68.4
2023-01-17T10:12:01.000Z,68.2
2023-01-17T10:13:01.098Z,67.8
2023-01-17T10:14:01.247Z,68.9
2023-01-17T10:15:00.390Z,68.8
2023-01-17T10:16:00.954Z,68.4
2023-01-17T10:17:00.681Z,68.6
2023-01-17T10:18:00.856Z,68.9
2023-01-17T10:19:00.978Z,68.4
2023-01-17T10:20:01.127Z,69.5
2023-01-17T10:21:00.260Z,69
2023-01-17T10:22:00.405Z,69.2
2023-01-17T10:23:00.588Z,69
2023-01-17T10:24:00.708Z,69.3
2023-01-17T10:25:00.865Z,69.4
2023-01-17T10:26:01.006Z,69.8
2023-01-17T10:27:01.141Z,68.7
2023-01-17T10:28:00.313Z,68.4
2023-01-17T10:29:00.441Z,68.9
2023-01-17T10:30:00.603Z,68.9
2023-01-17T10:31:00.787Z,68.7
2023-01-17T10:32:00.923Z,68.1
2023-01-17T10:33:01.056Z,68.2
2023-01-17T10:34:01.182Z,67.9
2023-01-17T10:35:00.333Z,68.3
2023-01-17T10:36:00.536Z,68.3
2023-01-17T10:37:00.636Z,68.2
2023-01-17T10:38:00.789Z,68.6
2023-01-17T10:39:00.946Z,67.9
2023-01-17T10:40:01.081Z,68.3
2023-01-17T10:41:01.263Z,67.8
2023-01-17T10:42:00.383Z,68
2023-01-17T10:43:00.538Z,68.4
2023-01-17T10:44:00.688Z,68.3
2023-01-17T10:45:00.845Z,68.3
2023-01-17T10:46:01.031Z,68.7
2023-01-17T10:47:01.141Z,69.2
2023-01-17T10:48:00.278Z,69.3
2023-01-17T10:49:00.427Z,69
2023-01-17T10:50:00.578Z,68.9
2023-01-17T10:51:00.746Z,68.9
2023-01-17T10:52:00.889Z,69.6
2023-01-17T10:53:01.024Z,69.3
2023-01-17T10:54:02.002Z,69.8
2023-01-17T10:55:00.336Z,69.7
2023-01-17T10:56:00.494Z,69.5
2023-01-17T10:57:00.617Z,68.9
2023-01-17T10:58:00.760Z,68.8
2023-01-17T10:59:00.899Z,68.3
2023-01-17T11:00:01.058Z,69.5
2023-01-17T11:01:01.322Z,69.9
2023-01-17T11:02:00.497Z,69.4
2023-01-17T11:03:00.521Z,70.1
2023-01-17T11:04:00.631Z,70.1
2023-01-17T11:05:00.808Z,69.4
2023-01-17T11:06:00.928Z,70.4
2023-01-17T11:07:01.078Z,69.2
2023-01-17T11:08:01.220Z,70.2
2023-01-17T11:09:00.377Z,69.3
2023-01-17T11:10:00.548Z,69.5
2023-01-17T11:11:00.667Z,70.8
2023-01-17T11:12:00.816Z,70.3
2023-01-17T11:13:00.968Z,68.9
2023-01-17T11:14:01.119Z,68.8
2023-01-17T11:15:00.333Z,69.1
2023-01-17T11:16:00.479Z,70.1
2023-01-17T11:17:00.574Z,69.7
2023-01-17T11:18:00.734Z,69.4
2023-01-17T11:19:00.864Z,69.9
2023-01-17T11:20:01.048Z,69.7
2023-01-17T11:21:01.178Z,69.7
2023-01-17T11:22:00.320Z,69.8
2023-01-17T11:23:00.459Z,70.1
2023-01-17T11:24:00.610Z,68.9
2023-01-17T11:25:00.777Z,68.3
2023-01-17T11:26:00.905Z,68.2
2023-01-17T11:27:01.035Z,67.6
2023-01-17T11:28:01.199Z,67.7
2023-01-17T11:29:00.335Z,68.1
2023-01-17T11:30:00.515Z,68.4
2023-01-17T11:31:00.683Z,68.5
2023-01-17T11:32:00.795Z,68.4
2023-01-17T11:33:00.944Z,67.5
2023-01-17T11:34:01.093Z,68.1
2023-01-17T11:35:01.242Z,68.1
2023-01-17T11:36:00.409Z,68
2023-01-17T11:37:00.540Z,68.2
2023-01-17T11:38:00.674Z,68.4
2023-01-17T11:39:00.819Z,68.2
2023-01-17T11:40:00.992Z,67.8
2023-01-17T11:41:01.104Z,67.8
2023-01-17T11:42:01.251Z,68.4
2023-01-17T11:43:00.403Z,67.8
2023-01-17T11:44:00.557Z,69.2
2023-01-17T11:45:00.746Z,68.7
2023-01-17T11:46:00.916Z,69
2023-01-17T11:47:00.993Z,67.8
2023-01-17T11:48:01.143Z,69.2
2023-01-17T11:49:00.294Z,68.8
2023-01-17T11:50:00.478Z,69.1
2023-01-17T11:51:00.619Z,68.8
2023-01-17T11:52:00.755Z,69.1
2023-01-17T11:53:00.902Z,68
2023-01-17T11:54:01.054Z,68.8
2023-01-17T11:55:01.217Z,68.8
2023-01-17T11:56:00.335Z,69.3
2023-01-17T11:57:00.507Z,69.4
2023-01-17T11:58:00.636Z,69.1
2023-01-17T11:59:00.789Z,68.7
2023-01-17T12:00:00.960Z,68.9
2023-01-17T12:01:01.127Z,68.8
2023-01-17T12:02:01.250Z,68.4
2023-01-17T12:03:00.402Z,68.6
2023-01-17T12:04:00.623Z,69
2023-01-17T12:05:00.795Z,68.3
2023-01-17T12:06:00.841Z,68.4
2023-01-17T12:07:01.000Z,68.6
2023-01-17T12:08:01.128Z,69.6
2023-01-17T12:09:00.271Z,68.7
2023-01-17T12:10:00.420Z,69.5
2023-01-17T12:11:00.571Z,68.3
2023-01-17T12:12:00.734Z,70
2023-01-17T12:13:00.879Z,69
2023-01-17T12:14:01.028Z,69
2023-01-17T12:15:01.156Z,69
2023-01-17T12:16:00.396Z,69.6
2023-01-17T12:17:00.476Z,69.7
2023-01-17T12:18:00.617Z,69.3
2023-01-17T12:19:00.758Z,68.8
2023-01-17T12:20:00.916Z,68.3
2023-01-17T12:21:01.061Z,67.9
2023-01-17T12:22:01.229Z,67.3
2023-01-17T12:23:00.344Z,68.5
2023-01-17T12:24:00.502Z,68.6
2023-01-17T12:25:00.648Z,68.4
2023-01-17T12:26:00.817Z,67.7
2023-01-17T12:27:00.963Z,69.2
2023-01-17T12:28:01.083Z,69.5
2023-01-17T12:29:01.247Z,69.6
2023-01-17T12:30:00.378Z,67.8
2023-01-17T12:31:00.558Z,68.5
2023-01-17T12:32:00.693Z,68.4
2023-01-17T12:33:00.820Z,68
2023-01-17T12:34:01.231Z,68.7
2023-01-17T12:35:01.123Z,69
2023-01-17T12:36:00.276Z,69.3
2023-01-17T12:37:00.437Z,68
2023-01-17T12:38:05.536Z,67.9
2023-01-17T12:39:00.719Z,67.8
2023-01-17T12:40:00.877Z,67.4
2023-01-17T12:41:01.016Z,67.9
2023-01-17T12:42:01.166Z,68
2023-01-17T12:43:00.342Z,68.3
2023-01-17T12:44:00.509Z,67.4
2023-01-17T12:45:00.632Z,67.2
2023-01-17T12:46:00.778Z,66.9
2023-01-17T12:47:00.930Z,66.8
2023-01-17T12:48:01.076Z,66.8
2023-01-17T12:49:01.201Z,66.5
2023-01-17T12:50:00.362Z,66.4
2023-01-17T12:51:00.509Z,67
2023-01-17T12:52:00.643Z,67.6
2023-01-17T12:53:00.810Z,67.9
2023-01-17T12:54:00.941Z,66.8
2023-01-17T12:55:01.067Z,67.2
2023-01-17T12:56:01.227Z,66.6
2023-01-17T12:57:00.374Z,66.2
2023-01-17T12:58:00.528Z,65.9
2023-01-17T12:59:00.675Z,65.7
2023-01-17T13:00:00.829Z,65.3
2023-01-17T13:01:01.113Z,65.7
2023-01-17T13:02:01.186Z,65.7
2023-01-17T13:03:01.262Z,65.4
2023-01-17T13:04:00.392Z,65.4
2023-01-17T13:05:00.548Z,65.6
2023-01-17T13:06:00.725Z,65.2
2023-01-17T13:07:00.856Z,65.5
2023-01-17T13:08:01.010Z,66.1
2023-01-17T13:09:01.146Z,65.7
2023-01-17T13:10:00.300Z,66.5
2023-01-17T13:11:00.449Z,66.4
2023-01-17T13:12:00.612Z,66
2023-01-17T13:13:00.779Z,65.2
2023-01-17T13:14:00.894Z,66.3
2023-01-17T13:15:01.047Z,66.1
2023-01-17T13:16:01.279Z,66.7
2023-01-17T13:17:00.327Z,66.1
2023-01-17T13:18:00.516Z,66.4
2023-01-17T13:19:00.643Z,65.9
2023-01-17T13:20:00.783Z,65.7
2023-01-17T13:21:00.926Z,64.7
2023-01-17T13:22:01.082Z,65.2
2023-01-17T13:23:01.244Z,65.7
2023-01-17T13:24:00.359Z,64.7